This is the latest recevied weather packets stored in our database for station/object LU3HGB-WX. If no packets are shown the sender has not sent any weather packets the latest 10 day(s).
| Time | Temp. | Humidity | Pressure | Rain* | Wind** | Luminosity | Snow |
|---|---|---|---|---|---|---|---|
| 1788595060 | 3.33° C | 74% | 1021 hPa | 0 mm | - | 0 W/m² | - |
| 1788594760 | 4.44° C | 72% | 1021 hPa | 0 mm | - | 0 W/m² | - |
| 1788594459 | 5° C | 68% | 1021 hPa | 0 mm | - | 0 W/m² | - |
| 1788594159 | 5° C | 67% | 1021 hPa | 0 mm | - | 0 W/m² | - |
| 1788593859 | 5° C | 66% | 1021 hPa | 0 mm | - | 0 W/m² | - |
| 1788593559 | 4.44° C | 69% | 1021 hPa | 0 mm | - | 0 W/m² | - |
| 1788593259 | 4.44° C | 71% | 1021 hPa | 0 mm | - | 0 W/m² | - |
| 1788592959 | 3.89° C | 71% | 1021 hPa | 0 mm | - | 0 W/m² | - |
| 1788592660 | 3.89° C | 74% | 1021 hPa | 0 mm | - | 0 W/m² | - |
| 1788592360 | 3.33° C | 74% | 1021 hPa | 0 mm | - | 0 W/m² | - |
| 1788592060 | 3.33° C | 75% | 1021 hPa | 0 mm | - | 0 W/m² | - |
| 1788591759 | 2.78° C | 78% | 1021 hPa | 0 mm | - | 0 W/m² | - |
| 1788591460 | 2.78° C | 78% | 1021 hPa | 0 mm | - | 0 W/m² | - |
| 1788591160 | 2.78° C | 78% | 1021 hPa | 0 mm | - | 0 W/m² | - |
| 1788590859 | 2.78° C | 77% | 1021 hPa | 0 mm | - | 0 W/m² | - |
| 1788590559 | 2.22° C | 77% | 1021 hPa | 0 mm | - | 0 W/m² | - |
| 1788590259 | 2.22° C | 78% | 1021 hPa | 0 mm | - | 0 W/m² | - |
| 1788589959 | 2.22° C | 77% | 1021 hPa | 0 mm | - | 0 W/m² | - |
| 1788589660 | 2.78° C | 76% | 1021 hPa | 0 mm | - | 0 W/m² | - |
| 1788589359 | 2.78° C | 74% | 1021 hPa | 0 mm | - | 0 W/m² | - |
| 1788589059 | 2.78° C | 73% | 1021 hPa | 0 mm | - | 0 W/m² | - |
| 1788588759 | 2.78° C | 72% | 1021 hPa | 0 mm | - | 0 W/m² | - |
| 1788588459 | 2.78° C | 72% | 1021 hPa | 0 mm | - | 0 W/m² | - |
| 1788588159 | 3.33° C | 72% | 1021 hPa | 0 mm | - | 0 W/m² | - |
| 1788587860 | 3.33° C | 71% | 1021 hPa | 0 mm | - | 0 W/m² | - |
* Rain latest hour (hover to see other rain measurements)
** Current wind speed in m/s (hover to see current wind gust speed)